createdAt,value
2023-05-14T00:02:40.093Z,12.10
2023-05-14T00:07:42.150Z,12.40
2023-05-14T00:12:44.228Z,11.50
2023-05-14T00:17:46.517Z,11.40
2023-05-14T00:22:48.360Z,12.40
2023-05-14T00:27:50.069Z,11.20
2023-05-14T00:32:52.042Z,11.20
2023-05-14T00:37:53.846Z,11.20
2023-05-14T00:42:56.285Z,12.50
2023-05-14T00:47:58.460Z,11.30
2023-05-14T00:53:00.764Z,11.30
2023-05-14T00:58:04.565Z,11.20
2023-05-14T01:08:21.848Z,11.10
2023-05-14T01:13:37.882Z,11.10
2023-05-14T01:18:41.513Z,11.10
2023-05-14T01:23:43.310Z,12.10
2023-05-14T01:28:45.592Z,11.10
2023-05-14T01:33:49.441Z,11.00
2023-05-14T01:38:51.658Z,10.90
2023-05-14T01:43:53.635Z,11.20
2023-05-14T01:48:55.560Z,10.80
2023-05-14T01:53:57.261Z,12.60
2023-05-14T01:58:59.052Z,11.00
2023-05-14T02:04:01.511Z,10.90
2023-05-14T02:09:04.257Z,10.80
2023-05-14T02:14:06.103Z,10.90
2023-05-14T02:19:07.871Z,10.80
2023-05-14T02:24:10.045Z,11.50
2023-05-14T02:29:11.788Z,10.70
2023-05-14T02:34:13.694Z,10.80
2023-05-14T02:39:15.438Z,10.80
2023-05-14T02:44:17.228Z,10.80
2023-05-14T02:49:18.937Z,10.70
2023-05-14T02:54:20.781Z,10.70
2023-05-14T02:59:24.347Z,10.70
2023-05-14T03:04:26.799Z,10.80
2023-05-14T03:09:28.630Z,10.80
2023-05-14T03:14:30.401Z,10.80
2023-05-14T03:19:32.160Z,10.80
2023-05-14T03:24:34.339Z,10.80
2023-05-14T03:29:36.021Z,10.80
2023-05-14T03:34:37.963Z,10.90
2023-05-14T03:39:39.680Z,10.90
2023-05-14T03:44:41.822Z,11.00
2023-05-14T03:49:44.067Z,11.90
2023-05-14T03:54:45.789Z,11.10
2023-05-14T03:59:47.522Z,11.10
2023-05-14T04:14:54.193Z,11.00
2023-05-14T04:19:55.982Z,11.00
2023-05-14T04:24:57.701Z,11.10
2023-05-14T04:29:59.581Z,11.90
2023-05-14T04:35:01.625Z,11.20
2023-05-14T04:40:03.941Z,11.20
2023-05-14T04:45:06.831Z,11.30
2023-05-14T04:50:09.810Z,11.30
2023-05-14T04:55:11.693Z,11.20
2023-05-14T05:00:14.047Z,11.20
2023-05-14T05:05:16.006Z,11.30
2023-05-14T05:10:17.730Z,11.30
2023-05-14T05:15:19.655Z,11.50
2023-05-14T05:20:21.524Z,11.50
2023-05-14T05:25:23.383Z,11.50
2023-05-14T05:30:25.483Z,12.30
2023-05-14T05:35:27.508Z,11.80
2023-05-14T05:40:29.392Z,11.70
2023-05-14T05:45:31.253Z,12.00
2023-05-14T05:50:32.961Z,12.00
2023-05-14T05:55:34.725Z,12.10
2023-05-14T06:00:36.848Z,12.20
2023-05-14T06:05:38.923Z,12.40
2023-05-14T06:10:40.836Z,12.50
2023-05-14T06:15:42.535Z,12.80
2023-05-14T06:20:45.153Z,12.70
2023-05-14T06:25:48.419Z,12.70
2023-05-14T06:30:54.142Z,13.30
2023-05-14T06:35:59.301Z,13.10
2023-05-14T06:41:01.033Z,12.60
2023-05-14T06:46:02.982Z,13.20
2023-05-14T06:51:04.763Z,14.00
2023-05-14T06:56:06.599Z,13.50
2023-05-14T07:01:08.340Z,13.40
2023-05-14T07:06:11.889Z,13.30
2023-05-14T07:11:15.692Z,13.40
2023-05-14T07:16:17.456Z,13.70
2023-05-14T07:21:19.701Z,14.10
2023-05-14T07:26:21.526Z,14.40
2023-05-14T07:31:23.366Z,14.90
2023-05-14T07:36:25.305Z,15.00
2023-05-14T07:41:27.334Z,15.00
2023-05-14T07:46:29.157Z,15.00
2023-05-14T07:51:33.403Z,15.50
2023-05-14T07:56:35.301Z,16.40
2023-05-14T08:01:39.079Z,16.20
2023-05-14T08:06:41.048Z,16.20
2023-05-14T08:11:43.055Z,16.30
2023-05-14T08:16:45.157Z,16.60
2023-05-14T08:21:46.964Z,16.60
2023-05-14T08:26:48.680Z,16.80
2023-05-14T08:31:51.156Z,16.60
2023-05-14T08:36:52.884Z,17.00
2023-05-14T08:41:57.814Z,17.10
2023-05-14T08:47:00.181Z,17.10
2023-05-14T08:57:05.657Z,16.60
2023-05-14T09:02:13.022Z,16.30
2023-05-14T09:07:15.026Z,16.30
2023-05-14T09:12:16.856Z,16.10
2023-05-14T09:17:19.472Z,16.10
2023-05-14T09:22:21.453Z,16.20
2023-05-14T09:27:23.220Z,16.10
2023-05-14T09:32:25.098Z,16.10
2023-05-14T09:37:28.774Z,15.90
2023-05-14T09:42:30.525Z,15.90
2023-05-14T09:47:32.930Z,15.80
2023-05-14T09:52:35.105Z,13.60
2023-05-14T09:57:37.258Z,15.60
2023-05-14T10:02:41.542Z,15.70
2023-05-14T10:07:48.316Z,15.70
2023-05-14T10:13:04.976Z,16.00
2023-05-14T10:18:16.269Z,16.20
2023-05-14T10:23:18.983Z,16.10
2023-05-14T10:28:21.113Z,16.20
2023-05-14T10:33:23.243Z,16.40
2023-05-14T10:38:34.180Z,16.30
2023-05-14T10:43:41.257Z,16.30
2023-05-14T10:48:44.203Z,16.30
2023-05-14T10:53:46.135Z,16.50
2023-05-14T10:58:50.495Z,16.40
2023-05-14T11:03:53.667Z,16.50
2023-05-14T11:08:56.196Z,16.70
2023-05-14T11:13:58.229Z,16.50
2023-05-14T11:19:04.523Z,16.40
2023-05-14T11:24:07.590Z,16.50
2023-05-14T11:29:10.530Z,16.40
2023-05-14T11:34:12.573Z,16.40
2023-05-14T11:39:20.092Z,16.50
2023-05-14T11:44:22.619Z,16.50
2023-05-14T11:49:25.278Z,16.90
2023-05-14T11:54:28.444Z,17.10
2023-05-14T11:59:32.614Z,17.20
2023-05-14T12:04:34.700Z,17.30
2023-05-14T12:09:43.010Z,17.50
2023-05-14T12:14:46.801Z,17.60
2023-05-14T12:19:50.678Z,17.60
2023-05-14T12:24:58.777Z,18.30
2023-05-14T12:35:10.228Z,18.50
2023-05-14T12:40:12.310Z,18.60
2023-05-14T12:45:14.052Z,19.10
2023-05-14T12:50:16.392Z,19.60
2023-05-14T12:55:18.090Z,20.50
2023-05-14T13:00:20.041Z,21.20
2023-05-14T13:05:21.861Z,21.50
2023-05-14T13:15:26.588Z,21.30
2023-05-14T13:20:29.506Z,20.10
2023-05-14T13:25:31.264Z,21.70
2023-05-14T13:30:33.113Z,22.80
2023-05-14T13:35:34.886Z,21.90
2023-05-14T13:40:36.645Z,21.00
2023-05-14T13:45:38.703Z,19.70
2023-05-14T13:50:40.453Z,20.30
2023-05-14T13:55:42.205Z,21.10
2023-05-14T14:00:43.956Z,22.00
2023-05-14T14:05:45.681Z,22.20
2023-05-14T14:10:47.545Z,22.60
2023-05-14T14:15:50.126Z,22.80
2023-05-14T14:20:52.637Z,22.50
2023-05-14T14:25:54.425Z,22.50
2023-05-14T14:30:56.146Z,23.00
2023-05-14T14:35:58.244Z,22.80
2023-05-14T14:41:00.312Z,22.50
2023-05-14T14:46:02.863Z,22.60
2023-05-14T14:51:06.477Z,22.40
2023-05-14T14:56:08.363Z,21.70
2023-05-14T15:01:10.212Z,22.20
2023-05-14T15:06:12.612Z,21.60
2023-05-14T15:11:14.875Z,20.70
2023-05-14T15:16:16.914Z,20.60
2023-05-14T15:21:18.700Z,20.40
2023-05-14T15:26:21.238Z,20.80
2023-05-14T15:31:23.078Z,21.00
2023-05-14T15:36:24.869Z,21.30
2023-05-14T15:41:28.699Z,21.40
2023-05-14T15:46:31.118Z,21.40
2023-05-14T15:51:33.142Z,21.20
2023-05-14T15:56:35.469Z,20.30
2023-05-14T16:01:37.722Z,20.00
2023-05-14T16:06:42.656Z,18.10
2023-05-14T16:11:44.383Z,18.90
2023-05-14T16:16:46.334Z,19.00
2023-05-14T16:21:48.193Z,19.40
2023-05-14T16:26:49.976Z,19.40
2023-05-14T16:31:51.866Z,19.40
2023-05-14T16:36:53.746Z,19.20
2023-05-14T16:41:55.481Z,19.10
2023-05-14T16:46:57.505Z,18.90
2023-05-14T16:51:59.227Z,18.80
2023-05-14T16:57:00.962Z,18.80
2023-05-14T17:02:03.019Z,18.70
2023-05-14T17:07:06.023Z,18.60
2023-05-14T17:12:08.398Z,18.40
2023-05-14T17:17:10.088Z,18.30
2023-05-14T17:22:12.558Z,18.10
2023-05-14T17:27:16.581Z,17.90
2023-05-14T17:32:18.767Z,17.90
2023-05-14T17:37:20.649Z,17.70
2023-05-14T17:42:22.437Z,17.50
2023-05-14T17:47:24.450Z,17.50
2023-05-14T17:52:26.306Z,17.30
2023-05-14T17:57:28.196Z,17.10
2023-05-14T18:02:30.240Z,17.00
2023-05-14T18:07:33.063Z,16.80
2023-05-14T18:12:35.433Z,16.80
2023-05-14T18:17:37.494Z,16.40
2023-05-14T18:22:39.247Z,16.30
2023-05-14T18:27:44.752Z,16.00
2023-05-14T18:32:46.895Z,15.90
2023-05-14T18:37:48.769Z,15.60
2023-05-14T18:42:50.687Z,15.50
2023-05-14T18:47:52.726Z,15.20
2023-05-14T18:52:54.473Z,15.10
2023-05-14T18:57:56.763Z,14.90
2023-05-14T19:02:58.556Z,14.80
2023-05-14T19:08:01.177Z,14.50
2023-05-14T19:13:32.899Z,14.40
2023-05-14T19:18:34.812Z,14.40
2023-05-14T19:23:36.713Z,14.30
2023-05-14T19:28:38.848Z,14.10
2023-05-14T19:33:40.739Z,14.00
2023-05-14T19:38:42.414Z,13.90
2023-05-14T19:43:44.225Z,13.80
2023-05-14T19:48:46.309Z,13.60
2023-05-14T19:53:48.065Z,13.70
2023-05-14T19:58:49.780Z,13.70
2023-05-14T20:03:51.512Z,13.70
2023-05-14T20:08:55.365Z,14.40
2023-05-14T20:13:57.154Z,13.60
2023-05-14T20:18:59.128Z,13.60
2023-05-14T20:24:00.934Z,13.40
2023-05-14T20:29:02.746Z,13.20
2023-05-14T20:34:04.522Z,13.60
2023-05-14T20:39:06.607Z,13.10
2023-05-14T20:44:08.454Z,13.70
2023-05-14T20:49:10.164Z,12.90
2023-05-14T20:54:11.948Z,13.50
2023-05-14T20:59:13.711Z,12.80
2023-05-14T21:04:15.702Z,12.80
2023-05-14T21:09:17.668Z,12.70
2023-05-14T21:14:19.705Z,12.60
2023-05-14T21:19:22.934Z,12.50
2023-05-14T21:24:24.734Z,12.40
2023-05-14T21:29:26.417Z,12.40
2023-05-14T21:34:29.894Z,12.40
2023-05-14T21:39:33.574Z,12.40
2023-05-14T21:44:35.305Z,12.50
2023-05-14T21:49:37.014Z,12.50
2023-05-14T21:54:38.740Z,12.50
2023-05-14T21:59:40.832Z,14.70
2023-05-14T22:04:42.614Z,12.30
2023-05-14T22:09:44.375Z,13.60
2023-05-14T22:14:47.071Z,12.60
2023-05-14T22:19:48.851Z,12.60
2023-05-14T22:24:50.617Z,12.60
2023-05-14T22:29:52.518Z,12.50
2023-05-14T22:34:54.355Z,12.50
2023-05-14T22:39:56.460Z,12.40
2023-05-14T22:44:58.465Z,12.20
2023-05-14T22:50:00.281Z,12.20
2023-05-14T22:55:02.007Z,12.20
2023-05-14T23:00:06.862Z,12.20
2023-05-14T23:05:09.490Z,12.30
2023-05-14T23:10:11.611Z,12.20
2023-05-14T23:15:13.360Z,12.10
2023-05-14T23:20:15.135Z,12.10
2023-05-14T23:25:16.861Z,11.80
2023-05-14T23:30:18.651Z,11.80
2023-05-14T23:35:20.432Z,11.70
2023-05-14T23:40:22.160Z,12.90
2023-05-14T23:45:24.075Z,11.50
2023-05-14T23:50:26.268Z,12.10
2023-05-14T23:55:27.979Z,11.50
